sensor_id;sensor_type;location;lat;lon;timestamp;temperature;humidity
53254;DHT22;39148;53.332;6.922;2023-07-20T00:01:15;21.20;77.30
53254;DHT22;39148;53.332;6.922;2023-07-20T00:03:41;21.20;77.40
53254;DHT22;39148;53.332;6.922;2023-07-20T00:06:07;21.20;77.50
53254;DHT22;39148;53.332;6.922;2023-07-20T00:08:33;21.20;77.50
53254;DHT22;39148;53.332;6.922;2023-07-20T00:10:59;21.30;77.50
53254;DHT22;39148;53.332;6.922;2023-07-20T00:13:24;21.10;77.50
53254;DHT22;39148;53.332;6.922;2023-07-20T00:15:51;21.10;77.60
53254;DHT22;39148;53.332;6.922;2023-07-20T00:18:17;21.30;77.80
53254;DHT22;39148;53.332;6.922;2023-07-20T00:20:44;21.20;77.80
53254;DHT22;39148;53.332;6.922;2023-07-20T00:23:10;21.10;77.60
53254;DHT22;39148;53.332;6.922;2023-07-20T00:25:36;21.10;77.70
53254;DHT22;39148;53.332;6.922;2023-07-20T00:28:02;21.10;77.70
53254;DHT22;39148;53.332;6.922;2023-07-20T00:30:27;21.00;77.50
53254;DHT22;39148;53.332;6.922;2023-07-20T00:32:53;21.00;77.60
53254;DHT22;39148;53.332;6.922;2023-07-20T00:35:19;21.00;77.70
53254;DHT22;39148;53.332;6.922;2023-07-20T00:37:44;21.00;77.70
53254;DHT22;39148;53.332;6.922;2023-07-20T00:40:10;21.00;77.70
53254;DHT22;39148;53.332;6.922;2023-07-20T00:42:36;21.00;77.80
53254;DHT22;39148;53.332;6.922;2023-07-20T00:45:02;21.00;77.80
53254;DHT22;39148;53.332;6.922;2023-07-20T00:47:27;21.00;77.60
53254;DHT22;39148;53.332;6.922;2023-07-20T00:49:54;20.90;77.80
53254;DHT22;39148;53.332;6.922;2023-07-20T00:52:21;20.90;77.90
53254;DHT22;39148;53.332;6.922;2023-07-20T00:54:49;21.00;78.00
53254;DHT22;39148;53.332;6.922;2023-07-20T00:57:15;20.90;78.00
53254;DHT22;39148;53.332;6.922;2023-07-20T00:59:43;20.80;78.00
53254;DHT22;39148;53.332;6.922;2023-07-20T01:02:09;20.90;78.00
53254;DHT22;39148;53.332;6.922;2023-07-20T01:04:35;20.90;78.00
53254;DHT22;39148;53.332;6.922;2023-07-20T01:07:21;20.90;78.00
53254;DHT22;39148;53.332;6.922;2023-07-20T01:09:56;20.90;76.90
53254;DHT22;39148;53.332;6.922;2023-07-20T01:12:30;20.80;78.20
53254;DHT22;39148;53.332;6.922;2023-07-20T01:14:57;20.80;78.20
53254;DHT22;39148;53.332;6.922;2023-07-20T01:17:23;20.80;78.00
53254;DHT22;39148;53.332;6.922;2023-07-20T01:19:49;20.70;78.00
53254;DHT22;39148;53.332;6.922;2023-07-20T01:22:50;20.80;78.10
53254;DHT22;39148;53.332;6.922;2023-07-20T01:33:13;20.70;78.20
53254;DHT22;39148;53.332;6.922;2023-07-20T01:35:41;20.60;78.20
53254;DHT22;39148;53.332;6.922;2023-07-20T01:38:10;19.90;77.90
53254;DHT22;39148;53.332;6.922;2023-07-20T01:40:36;20.60;78.20
53254;DHT22;39148;53.332;6.922;2023-07-20T01:43:03;20.80;78.30
53254;DHT22;39148;53.332;6.922;2023-07-20T01:45:28;20.60;78.10
53254;DHT22;39148;53.332;6.922;2023-07-20T01:47:54;20.60;78.20
53254;DHT22;39148;53.332;6.922;2023-07-20T01:50:20;20.80;78.30
53254;DHT22;39148;53.332;6.922;2023-07-20T01:52:45;20.60;78.20
53254;DHT22;39148;53.332;6.922;2023-07-20T01:55:11;20.50;78.20
53254;DHT22;39148;53.332;6.922;2023-07-20T01:57:37;20.60;78.20
53254;DHT22;39148;53.332;6.922;2023-07-20T02:00:03;20.50;78.20
53254;DHT22;39148;53.332;6.922;2023-07-20T02:02:29;20.40;78.00
53254;DHT22;39148;53.332;6.922;2023-07-20T02:04:55;20.50;78.20
53254;DHT22;39148;53.332;6.922;2023-07-20T02:07:20;20.60;78.40
53254;DHT22;39148;53.332;6.922;2023-07-20T02:09:46;20.50;78.20
53254;DHT22;39148;53.332;6.922;2023-07-20T02:12:12;20.40;78.30
53254;DHT22;39148;53.332;6.922;2023-07-20T02:14:38;20.40;78.40
53254;DHT22;39148;53.332;6.922;2023-07-20T02:17:04;20.30;78.30
53254;DHT22;39148;53.332;6.922;2023-07-20T02:19:30;20.40;78.30
53254;DHT22;39148;53.332;6.922;2023-07-20T02:21:56;20.40;78.30
53254;DHT22;39148;53.332;6.922;2023-07-20T02:24:21;20.40;78.30
53254;DHT22;39148;53.332;6.922;2023-07-20T02:26:47;20.40;78.40
53254;DHT22;39148;53.332;6.922;2023-07-20T02:29:12;20.30;78.30
53254;DHT22;39148;53.332;6.922;2023-07-20T02:31:38;20.30;78.30
53254;DHT22;39148;53.332;6.922;2023-07-20T02:34:05;20.30;78.40
53254;DHT22;39148;53.332;6.922;2023-07-20T02:36:32;20.30;78.50
53254;DHT22;39148;53.332;6.922;2023-07-20T02:39:01;20.20;78.50
53254;DHT22;39148;53.332;6.922;2023-07-20T02:41:30;20.20;78.90
53254;DHT22;39148;53.332;6.922;2023-07-20T02:43:56;20.10;78.50
53254;DHT22;39148;53.332;6.922;2023-07-20T02:46:22;20.20;78.40
53254;DHT22;39148;53.332;6.922;2023-07-20T02:48:48;20.20;78.40
53254;DHT22;39148;53.332;6.922;2023-07-20T02:51:13;20.20;78.30
53254;DHT22;39148;53.332;6.922;2023-07-20T02:53:39;18.90;77.80
53254;DHT22;39148;53.332;6.922;2023-07-20T02:56:05;20.10;78.40
53254;DHT22;39148;53.332;6.922;2023-07-20T02:58:30;20.20;78.50
53254;DHT22;39148;53.332;6.922;2023-07-20T03:00:56;20.10;78.50
53254;DHT22;39148;53.332;6.922;2023-07-20T03:03:22;20.00;78.40
53254;DHT22;39148;53.332;6.922;2023-07-20T03:05:47;20.10;78.50
53254;DHT22;39148;53.332;6.922;2023-07-20T03:08:20;20.00;78.50
53254;DHT22;39148;53.332;6.922;2023-07-20T03:10:45;19.90;78.50
53254;DHT22;39148;53.332;6.922;2023-07-20T03:13:11;20.00;78.40
53254;DHT22;39148;53.332;6.922;2023-07-20T03:15:38;19.80;78.40
53254;DHT22;39148;53.332;6.922;2023-07-20T03:18:04;19.90;78.50
53254;DHT22;39148;53.332;6.922;2023-07-20T03:20:30;19.90;78.50
53254;DHT22;39148;53.332;6.922;2023-07-20T03:22:56;19.90;78.60
53254;DHT22;39148;53.332;6.922;2023-07-20T03:25:22;19.90;78.50
53254;DHT22;39148;53.332;6.922;2023-07-20T03:27:48;19.90;78.40
53254;DHT22;39148;53.332;6.922;2023-07-20T03:30:14;19.90;78.40
53254;DHT22;39148;53.332;6.922;2023-07-20T03:32:40;19.90;78.30
53254;DHT22;39148;53.332;6.922;2023-07-20T03:35:06;19.90;78.60
53254;DHT22;39148;53.332;6.922;2023-07-20T03:37:32;19.80;78.40
53254;DHT22;39148;53.332;6.922;2023-07-20T03:39:57;19.80;78.60
53254;DHT22;39148;53.332;6.922;2023-07-20T03:42:23;19.80;78.50
53254;DHT22;39148;53.332;6.922;2023-07-20T03:44:49;19.70;78.50
53254;DHT22;39148;53.332;6.922;2023-07-20T03:47:16;19.70;78.60
53254;DHT22;39148;53.332;6.922;2023-07-20T03:49:41;19.70;78.60
53254;DHT22;39148;53.332;6.922;2023-07-20T03:52:07;19.70;78.60
53254;DHT22;39148;53.332;6.922;2023-07-20T03:54:33;19.70;78.70
53254;DHT22;39148;53.332;6.922;2023-07-20T03:56:58;19.80;78.70
53254;DHT22;39148;53.332;6.922;2023-07-20T03:59:24;19.60;78.70
53254;DHT22;39148;53.332;6.922;2023-07-20T04:01:50;19.70;78.70
53254;DHT22;39148;53.332;6.922;2023-07-20T04:04:16;19.70;78.70
53254;DHT22;39148;53.332;6.922;2023-07-20T04:06:42;19.70;78.90
53254;DHT22;39148;53.332;6.922;2023-07-20T04:09:10;19.60;78.80
53254;DHT22;39148;53.332;6.922;2023-07-20T04:11:36;19.60;78.90
53254;DHT22;39148;53.332;6.922;2023-07-20T04:14:02;19.60;78.80
53254;DHT22;39148;53.332;6.922;2023-07-20T04:16:28;19.50;78.70
53254;DHT22;39148;53.332;6.922;2023-07-20T04:18:56;19.50;78.80
53254;DHT22;39148;53.332;6.922;2023-07-20T04:21:23;19.50;79.10
53254;DHT22;39148;53.332;6.922;2023-07-20T04:23:49;19.50;79.00
53254;DHT22;39148;53.332;6.922;2023-07-20T04:26:14;19.60;78.80
53254;DHT22;39148;53.332;6.922;2023-07-20T04:28:41;19.50;78.90
53254;DHT22;39148;53.332;6.922;2023-07-20T04:31:15;19.50;79.00
53254;DHT22;39148;53.332;6.922;2023-07-20T04:33:41;19.20;79.10
53254;DHT22;39148;53.332;6.922;2023-07-20T04:36:07;19.50;79.00
53254;DHT22;39148;53.332;6.922;2023-07-20T04:38:33;19.40;79.00
53254;DHT22;39148;53.332;6.922;2023-07-20T04:40:59;19.40;79.00
53254;DHT22;39148;53.332;6.922;2023-07-20T04:43:25;19.40;79.00
53254;DHT22;39148;53.332;6.922;2023-07-20T04:45:51;19.30;79.00
53254;DHT22;39148;53.332;6.922;2023-07-20T04:48:17;19.40;79.10
53254;DHT22;39148;53.332;6.922;2023-07-20T04:50:44;19.40;78.90
53254;DHT22;39148;53.332;6.922;2023-07-20T04:53:11;19.40;79.20
53254;DHT22;39148;53.332;6.922;2023-07-20T04:55:38;19.30;79.10
53254;DHT22;39148;53.332;6.922;2023-07-20T04:58:05;19.40;79.30
53254;DHT22;39148;53.332;6.922;2023-07-20T05:00:32;19.40;79.20
53254;DHT22;39148;53.332;6.922;2023-07-20T05:02:58;19.20;79.20
53254;DHT22;39148;53.332;6.922;2023-07-20T05:05:23;19.30;79.20
53254;DHT22;39148;53.332;6.922;2023-07-20T05:07:49;19.20;79.10
53254;DHT22;39148;53.332;6.922;2023-07-20T05:10:15;19.20;79.20
53254;DHT22;39148;53.332;6.922;2023-07-20T05:12:40;19.20;79.10
53254;DHT22;39148;53.332;6.922;2023-07-20T05:15:06;19.30;79.20
53254;DHT22;39148;53.332;6.922;2023-07-20T05:17:32;19.30;79.00
53254;DHT22;39148;53.332;6.922;2023-07-20T05:19:58;19.20;79.30
53254;DHT22;39148;53.332;6.922;2023-07-20T05:22:23;19.20;79.20
53254;DHT22;39148;53.332;6.922;2023-07-20T05:24:50;19.20;79.30
53254;DHT22;39148;53.332;6.922;2023-07-20T05:27:16;19.20;79.20
53254;DHT22;39148;53.332;6.922;2023-07-20T05:29:45;19.20;79.20
53254;DHT22;39148;53.332;6.922;2023-07-20T05:32:12;19.20;79.60
53254;DHT22;39148;53.332;6.922;2023-07-20T05:34:37;19.10;79.30
53254;DHT22;39148;53.332;6.922;2023-07-20T05:37:03;19.20;79.30
53254;DHT22;39148;53.332;6.922;2023-07-20T05:39:29;19.10;79.00
53254;DHT22;39148;53.332;6.922;2023-07-20T05:41:55;19.30;79.30
53254;DHT22;39148;53.332;6.922;2023-07-20T05:44:20;19.10;79.30
53254;DHT22;39148;53.332;6.922;2023-07-20T05:46:46;19.20;79.20
53254;DHT22;39148;53.332;6.922;2023-07-20T05:49:12;19.00;79.20
53254;DHT22;39148;53.332;6.922;2023-07-20T05:51:37;19.10;79.30
53254;DHT22;39148;53.332;6.922;2023-07-20T05:54:03;19.10;79.30
53254;DHT22;39148;53.332;6.922;2023-07-20T05:56:29;19.20;79.40
53254;DHT22;39148;53.332;6.922;2023-07-20T05:58:54;19.10;79.40
53254;DHT22;39148;53.332;6.922;2023-07-20T06:01:20;19.10;79.30
53254;DHT22;39148;53.332;6.922;2023-07-20T06:03:46;19.20;79.40
53254;DHT22;39148;53.332;6.922;2023-07-20T06:06:11;19.10;79.20
53254;DHT22;39148;53.332;6.922;2023-07-20T06:08:38;19.20;79.40
53254;DHT22;39148;53.332;6.922;2023-07-20T06:11:04;19.10;79.30
53254;DHT22;39148;53.332;6.922;2023-07-20T06:13:30;19.10;79.50
53254;DHT22;39148;53.332;6.922;2023-07-20T06:15:55;19.10;79.50
53254;DHT22;39148;53.332;6.922;2023-07-20T06:18:24;19.10;79.50
53254;DHT22;39148;53.332;6.922;2023-07-20T06:20:53;19.10;79.90
53254;DHT22;39148;53.332;6.922;2023-07-20T06:23:19;19.10;79.80
53254;DHT22;39148;53.332;6.922;2023-07-20T06:25:45;19.10;79.80
53254;DHT22;39148;53.332;6.922;2023-07-20T06:28:11;19.20;79.80
53254;DHT22;39148;53.332;6.922;2023-07-20T06:30:37;19.10;79.80
53254;DHT22;39148;53.332;6.922;2023-07-20T06:33:03;19.10;80.30
53254;DHT22;39148;53.332;6.922;2023-07-20T06:35:28;19.20;80.00
53254;DHT22;39148;53.332;6.922;2023-07-20T06:37:54;19.30;80.00
53254;DHT22;39148;53.332;6.922;2023-07-20T06:40:21;19.10;79.90
53254;DHT22;39148;53.332;6.922;2023-07-20T06:42:47;19.20;80.20
53254;DHT22;39148;53.332;6.922;2023-07-20T06:45:13;19.10;80.00
53254;DHT22;39148;53.332;6.922;2023-07-20T06:47:39;19.20;80.10
53254;DHT22;39148;53.332;6.922;2023-07-20T06:50:06;19.30;80.20
53254;DHT22;39148;53.332;6.922;2023-07-20T06:52:32;19.10;80.10
53254;DHT22;39148;53.332;6.922;2023-07-20T06:54:58;19.30;80.30
53254;DHT22;39148;53.332;6.922;2023-07-20T06:57:25;19.30;80.30
53254;DHT22;39148;53.332;6.922;2023-07-20T06:59:50;19.30;80.20
53254;DHT22;39148;53.332;6.922;2023-07-20T07:02:16;19.30;80.10
53254;DHT22;39148;53.332;6.922;2023-07-20T07:04:42;19.30;80.20
53254;DHT22;39148;53.332;6.922;2023-07-20T07:07:08;19.30;80.30
53254;DHT22;39148;53.332;6.922;2023-07-20T07:09:34;19.40;80.20
53254;DHT22;39148;53.332;6.922;2023-07-20T07:12:00;19.40;80.10
53254;DHT22;39148;53.332;6.922;2023-07-20T07:14:26;19.30;80.10
53254;DHT22;39148;53.332;6.922;2023-07-20T07:16:52;19.40;80.10
53254;DHT22;39148;53.332;6.922;2023-07-20T07:19:18;19.40;80.10
53254;DHT22;39148;53.332;6.922;2023-07-20T07:21:43;19.40;80.00
53254;DHT22;39148;53.332;6.922;2023-07-20T07:24:09;19.40;80.10
53254;DHT22;39148;53.332;6.922;2023-07-20T07:26:36;19.40;80.10
53254;DHT22;39148;53.332;6.922;2023-07-20T07:29:03;19.30;80.10
53254;DHT22;39148;53.332;6.922;2023-07-20T07:31:29;19.40;79.90
53254;DHT22;39148;53.332;6.922;2023-07-20T07:33:56;19.60;80.30
53254;DHT22;39148;53.332;6.922;2023-07-20T07:36:22;19.40;80.30
53254;DHT22;39148;53.332;6.922;2023-07-20T07:38:50;19.40;80.30
53254;DHT22;39148;53.332;6.922;2023-07-20T07:41:15;19.60;80.20
53254;DHT22;39148;53.332;6.922;2023-07-20T07:43:42;19.50;80.20
53254;DHT22;39148;53.332;6.922;2023-07-20T07:46:08;19.40;80.20
53254;DHT22;39148;53.332;6.922;2023-07-20T07:48:33;19.50;80.10
53254;DHT22;39148;53.332;6.922;2023-07-20T07:50:59;19.50;80.00
53254;DHT22;39148;53.332;6.922;2023-07-20T07:53:25;19.50;80.00
53254;DHT22;39148;53.332;6.922;2023-07-20T07:55:51;19.50;80.10
53254;DHT22;39148;53.332;6.922;2023-07-20T07:58:18;19.60;80.30
53254;DHT22;39148;53.332;6.922;2023-07-20T08:00:44;19.50;80.10
53254;DHT22;39148;53.332;6.922;2023-07-20T08:03:10;19.50;80.10
53254;DHT22;39148;53.332;6.922;2023-07-20T08:05:36;19.60;80.10
53254;DHT22;39148;53.332;6.922;2023-07-20T08:08:02;19.70;80.10
53254;DHT22;39148;53.332;6.922;2023-07-20T08:10:29;19.60;80.30
53254;DHT22;39148;53.332;6.922;2023-07-20T08:12:55;19.60;80.20
53254;DHT22;39148;53.332;6.922;2023-07-20T08:15:21;19.60;80.00
53254;DHT22;39148;53.332;6.922;2023-07-20T08:17:47;19.60;79.90
53254;DHT22;39148;53.332;6.922;2023-07-20T08:20:14;19.70;80.00
53254;DHT22;39148;53.332;6.922;2023-07-20T08:22:40;19.60;79.80
53254;DHT22;39148;53.332;6.922;2023-07-20T08:25:06;19.60;80.00
53254;DHT22;39148;53.332;6.922;2023-07-20T08:27:32;19.70;79.60
53254;DHT22;39148;53.332;6.922;2023-07-20T08:29:58;19.70;79.80
53254;DHT22;39148;53.332;6.922;2023-07-20T08:32:23;19.70;79.80
53254;DHT22;39148;53.332;6.922;2023-07-20T08:34:49;19.80;79.80
53254;DHT22;39148;53.332;6.922;2023-07-20T08:37:15;19.70;79.80
53254;DHT22;39148;53.332;6.922;2023-07-20T08:39:40;19.80;79.80
53254;DHT22;39148;53.332;6.922;2023-07-20T08:42:06;19.70;79.70
53254;DHT22;39148;53.332;6.922;2023-07-20T08:44:33;19.80;79.80
53254;DHT22;39148;53.332;6.922;2023-07-20T08:47:01;19.90;79.60
53254;DHT22;39148;53.332;6.922;2023-07-20T08:49:28;19.80;79.60
53254;DHT22;39148;53.332;6.922;2023-07-20T08:51:54;20.00;79.60
53254;DHT22;39148;53.332;6.922;2023-07-20T08:54:20;19.90;79.40
53254;DHT22;39148;53.332;6.922;2023-07-20T08:56:46;19.90;79.40
53254;DHT22;39148;53.332;6.922;2023-07-20T08:59:14;19.90;79.30
53254;DHT22;39148;53.332;6.922;2023-07-20T09:01:41;19.90;79.50
53254;DHT22;39148;53.332;6.922;2023-07-20T09:04:07;19.90;79.30
53254;DHT22;39148;53.332;6.922;2023-07-20T09:06:35;19.90;79.20
53254;DHT22;39148;53.332;6.922;2023-07-20T09:09:00;20.10;79.30
53254;DHT22;39148;53.332;6.922;2023-07-20T09:11:26;20.00;79.10
53254;DHT22;39148;53.332;6.922;2023-07-20T09:14:09;20.00;79.10
53254;DHT22;39148;53.332;6.922;2023-07-20T09:16:53;20.10;79.50
53254;DHT22;39148;53.332;6.922;2023-07-20T09:19:19;20.10;79.40
53254;DHT22;39148;53.332;6.922;2023-07-20T09:21:48;20.20;79.10
53254;DHT22;39148;53.332;6.922;2023-07-20T09:24:16;19.90;77.90
53254;DHT22;39148;53.332;6.922;2023-07-20T09:26:44;20.20;79.30
53254;DHT22;39148;53.332;6.922;2023-07-20T09:29:10;20.20;79.30
53254;DHT22;39148;53.332;6.922;2023-07-20T09:31:36;20.20;79.20
53254;DHT22;39148;53.332;6.922;2023-07-20T09:34:01;20.20;79.00
53254;DHT22;39148;53.332;6.922;2023-07-20T09:36:28;19.60;78.80
53254;DHT22;39148;53.332;6.922;2023-07-20T09:38:54;20.30;79.10
53254;DHT22;39148;53.332;6.922;2023-07-20T09:41:21;20.30;79.00
53254;DHT22;39148;53.332;6.922;2023-07-20T09:43:47;20.20;79.00
53254;DHT22;39148;53.332;6.922;2023-07-20T09:46:13;20.20;79.00
53254;DHT22;39148;53.332;6.922;2023-07-20T09:48:39;20.40;79.00
53254;DHT22;39148;53.332;6.922;2023-07-20T09:51:06;20.30;78.90
53254;DHT22;39148;53.332;6.922;2023-07-20T09:53:33;20.40;79.10
53254;DHT22;39148;53.332;6.922;2023-07-20T09:55:59;20.50;79.10
53254;DHT22;39148;53.332;6.922;2023-07-20T09:58:29;20.50;79.00
53254;DHT22;39148;53.332;6.922;2023-07-20T10:00:57;20.50;79.10
53254;DHT22;39148;53.332;6.922;2023-07-20T10:03:29;20.60;79.00
53254;DHT22;39148;53.332;6.922;2023-07-20T10:05:58;20.60;79.10
53254;DHT22;39148;53.332;6.922;2023-07-20T10:08:26;20.50;79.00
53254;DHT22;39148;53.332;6.922;2023-07-20T10:10:54;20.70;79.00
53254;DHT22;39148;53.332;6.922;2023-07-20T10:13:26;20.60;78.70
53254;DHT22;39148;53.332;6.922;2023-07-20T10:16:07;20.60;79.00
53254;DHT22;39148;53.332;6.922;2023-07-20T10:18:43;20.70;78.90
53254;DHT22;39148;53.332;6.922;2023-07-20T10:21:12;20.70;78.90
53254;DHT22;39148;53.332;6.922;2023-07-20T10:23:39;20.70;78.60
53254;DHT22;39148;53.332;6.922;2023-07-20T10:26:05;20.90;78.50
53254;DHT22;39148;53.332;6.922;2023-07-20T10:28:31;20.80;78.60
53254;DHT22;39148;53.332;6.922;2023-07-20T10:30:57;20.80;78.50
53254;DHT22;39148;53.332;6.922;2023-07-20T10:33:24;20.80;78.50
53254;DHT22;39148;53.332;6.922;2023-07-20T10:35:57;20.80;78.60
53254;DHT22;39148;53.332;6.922;2023-07-20T10:41:19;20.90;77.60
53254;DHT22;39148;53.332;6.922;2023-07-20T10:43:46;21.00;78.80
53254;DHT22;39148;53.332;6.922;2023-07-20T10:46:13;21.00;78.60
53254;DHT22;39148;53.332;6.922;2023-07-20T10:49:01;21.00;78.40
53254;DHT22;39148;53.332;6.922;2023-07-20T10:51:28;21.00;77.60
53254;DHT22;39148;53.332;6.922;2023-07-20T10:53:57;21.20;78.40
53254;DHT22;39148;53.332;6.922;2023-07-20T10:56:27;21.20;78.30
53254;DHT22;39148;53.332;6.922;2023-07-20T10:58:58;21.00;78.30
53254;DHT22;39148;53.332;6.922;2023-07-20T11:01:28;21.20;78.40
53254;DHT22;39148;53.332;6.922;2023-07-20T11:03:58;21.40;78.40
53254;DHT22;39148;53.332;6.922;2023-07-20T11:08:56;21.30;78.10
53254;DHT22;39148;53.332;6.922;2023-07-20T11:11:23;21.20;78.20
53254;DHT22;39148;53.332;6.922;2023-07-20T11:14:00;21.20;78.10
53254;DHT22;39148;53.332;6.922;2023-07-20T11:16:37;21.50;78.30
53254;DHT22;39148;53.332;6.922;2023-07-20T11:19:04;21.50;78.30
53254;DHT22;39148;53.332;6.922;2023-07-20T11:21:36;21.30;77.90
53254;DHT22;39148;53.332;6.922;2023-07-20T11:24:06;21.40;78.00
53254;DHT22;39148;53.332;6.922;2023-07-20T11:26:40;21.40;78.00
53254;DHT22;39148;53.332;6.922;2023-07-20T11:29:06;21.40;78.10
53254;DHT22;39148;53.332;6.922;2023-07-20T11:31:35;21.50;77.70
53254;DHT22;39148;53.332;6.922;2023-07-20T11:34:01;21.50;77.80
53254;DHT22;39148;53.332;6.922;2023-07-20T11:36:27;21.50;77.60
53254;DHT22;39148;53.332;6.922;2023-07-20T11:38:53;21.50;77.50
53254;DHT22;39148;53.332;6.922;2023-07-20T11:41:19;21.80;77.70
53254;DHT22;39148;53.332;6.922;2023-07-20T11:43:45;21.70;77.50
53254;DHT22;39148;53.332;6.922;2023-07-20T11:46:11;21.60;77.40
53254;DHT22;39148;53.332;6.922;2023-07-20T11:48:37;21.60;77.30
53254;DHT22;39148;53.332;6.922;2023-07-20T11:51:03;21.70;77.30
53254;DHT22;39148;53.332;6.922;2023-07-20T11:53:29;21.80;77.10
53254;DHT22;39148;53.332;6.922;2023-07-20T11:55:54;21.70;77.30
53254;DHT22;39148;53.332;6.922;2023-07-20T11:58:21;21.80;77.30
53254;DHT22;39148;53.332;6.922;2023-07-20T12:00:47;21.80;77.30
53254;DHT22;39148;53.332;6.922;2023-07-20T12:03:13;21.90;77.00
53254;DHT22;39148;53.332;6.922;2023-07-20T12:05:39;21.90;77.00
53254;DHT22;39148;53.332;6.922;2023-07-20T12:08:05;21.90;77.00
53254;DHT22;39148;53.332;6.922;2023-07-20T12:10:31;21.90;76.90
53254;DHT22;39148;53.332;6.922;2023-07-20T12:13:03;21.90;76.80
53254;DHT22;39148;53.332;6.922;2023-07-20T12:15:29;21.80;77.00
53254;DHT22;39148;53.332;6.922;2023-07-20T12:17:56;22.00;76.80
53254;DHT22;39148;53.332;6.922;2023-07-20T12:20:35;21.90;76.80
53254;DHT22;39148;53.332;6.922;2023-07-20T12:23:12;22.00;75.90
53254;DHT22;39148;53.332;6.922;2023-07-20T12:25:40;22.10;77.10
53254;DHT22;39148;53.332;6.922;2023-07-20T12:28:08;22.00;76.80
53254;DHT22;39148;53.332;6.922;2023-07-20T12:30:34;22.10;76.80
53254;DHT22;39148;53.332;6.922;2023-07-20T12:33:00;22.10;76.50
53254;DHT22;39148;53.332;6.922;2023-07-20T12:35:26;22.10;76.60
53254;DHT22;39148;53.332;6.922;2023-07-20T12:37:52;22.20;76.60
53254;DHT22;39148;53.332;6.922;2023-07-20T12:40:19;22.30;76.50
53254;DHT22;39148;53.332;6.922;2023-07-20T12:42:44;22.30;76.30
53254;DHT22;39148;53.332;6.922;2023-07-20T12:45:10;22.20;76.30
53254;DHT22;39148;53.332;6.922;2023-07-20T12:47:37;22.10;76.20
53254;DHT22;39148;53.332;6.922;2023-07-20T12:50:03;22.30;76.20
53254;DHT22;39148;53.332;6.922;2023-07-20T12:52:31;22.20;75.90
53254;DHT22;39148;53.332;6.922;2023-07-20T12:54:57;22.30;76.10
53254;DHT22;39148;53.332;6.922;2023-07-20T12:57:24;22.40;76.80
53254;DHT22;39148;53.332;6.922;2023-07-20T12:59:50;22.40;76.10
53254;DHT22;39148;53.332;6.922;2023-07-20T13:02:15;22.40;76.10
53254;DHT22;39148;53.332;6.922;2023-07-20T13:04:41;22.50;76.20
53254;DHT22;39148;53.332;6.922;2023-07-20T13:07:10;22.50;76.20
53254;DHT22;39148;53.332;6.922;2023-07-20T13:09:37;22.50;76.10
53254;DHT22;39148;53.332;6.922;2023-07-20T13:12:03;22.60;75.90
53254;DHT22;39148;53.332;6.922;2023-07-20T13:14:28;22.70;75.80
53254;DHT22;39148;53.332;6.922;2023-07-20T13:16:55;22.60;75.80
53254;DHT22;39148;53.332;6.922;2023-07-20T13:19:21;22.60;75.70
53254;DHT22;39148;53.332;6.922;2023-07-20T13:21:47;22.60;75.70
53254;DHT22;39148;53.332;6.922;2023-07-20T13:24:13;22.90;75.80
53254;DHT22;39148;53.332;6.922;2023-07-20T13:26:39;22.70;75.50
53254;DHT22;39148;53.332;6.922;2023-07-20T13:29:05;22.80;75.60
53254;DHT22;39148;53.332;6.922;2023-07-20T13:31:31;22.80;75.50
53254;DHT22;39148;53.332;6.922;2023-07-20T13:33:57;23.00;75.70
53254;DHT22;39148;53.332;6.922;2023-07-20T13:36:24;23.10;75.70
53254;DHT22;39148;53.332;6.922;2023-07-20T13:38:49;22.90;75.50
53254;DHT22;39148;53.332;6.922;2023-07-20T13:41:15;23.00;75.40
53254;DHT22;39148;53.332;6.922;2023-07-20T13:43:42;22.90;75.40
53254;DHT22;39148;53.332;6.922;2023-07-20T13:46:08;23.00;75.40
53254;DHT22;39148;53.332;6.922;2023-07-20T13:48:33;23.00;75.30
53254;DHT22;39148;53.332;6.922;2023-07-20T13:50:59;23.00;75.10
53254;DHT22;39148;53.332;6.922;2023-07-20T13:53:25;23.10;75.20
53254;DHT22;39148;53.332;6.922;2023-07-20T13:55:50;23.10;75.10
53254;DHT22;39148;53.332;6.922;2023-07-20T13:58:18;23.20;75.20
53254;DHT22;39148;53.332;6.922;2023-07-20T14:00:43;23.30;75.10
53254;DHT22;39148;53.332;6.922;2023-07-20T14:03:09;23.10;75.00
53254;DHT22;39148;53.332;6.922;2023-07-20T14:05:35;23.10;74.90
53254;DHT22;39148;53.332;6.922;2023-07-20T14:08:00;23.20;74.90
53254;DHT22;39148;53.332;6.922;2023-07-20T14:10:26;23.20;74.80
53254;DHT22;39148;53.332;6.922;2023-07-20T14:12:52;23.30;74.70
53254;DHT22;39148;53.332;6.922;2023-07-20T14:15:17;23.30;74.70
53254;DHT22;39148;53.332;6.922;2023-07-20T14:17:44;23.40;74.80
53254;DHT22;39148;53.332;6.922;2023-07-20T14:20:11;23.30;74.60
53254;DHT22;39148;53.332;6.922;2023-07-20T14:22:36;23.40;74.30
53254;DHT22;39148;53.332;6.922;2023-07-20T14:25:02;23.50;74.60
53254;DHT22;39148;53.332;6.922;2023-07-20T14:27:28;23.50;74.30
53254;DHT22;39148;53.332;6.922;2023-07-20T14:29:54;23.50;74.40
53254;DHT22;39148;53.332;6.922;2023-07-20T14:32:20;23.50;74.60
53254;DHT22;39148;53.332;6.922;2023-07-20T14:34:46;23.50;74.50
53254;DHT22;39148;53.332;6.922;2023-07-20T14:37:11;23.60;74.50
53254;DHT22;39148;53.332;6.922;2023-07-20T14:39:38;23.50;74.30
53254;DHT22;39148;53.332;6.922;2023-07-20T14:42:04;23.50;74.30
53254;DHT22;39148;53.332;6.922;2023-07-20T14:44:30;23.60;74.20
53254;DHT22;39148;53.332;6.922;2023-07-20T14:46:56;23.60;74.20
53254;DHT22;39148;53.332;6.922;2023-07-20T14:49:22;23.50;74.20
53254;DHT22;39148;53.332;6.922;2023-07-20T14:51:47;23.60;74.30
53254;DHT22;39148;53.332;6.922;2023-07-20T14:54:14;23.60;74.30
53254;DHT22;39148;53.332;6.922;2023-07-20T14:56:49;23.70;74.20
53254;DHT22;39148;53.332;6.922;2023-07-20T14:59:16;23.70;74.50
53254;DHT22;39148;53.332;6.922;2023-07-20T15:01:43;23.70;74.20
53254;DHT22;39148;53.332;6.922;2023-07-20T15:04:14;23.70;74.20
53254;DHT22;39148;53.332;6.922;2023-07-20T15:06:40;23.70;72.90
53254;DHT22;39148;53.332;6.922;2023-07-20T15:09:06;23.80;74.20
53254;DHT22;39148;53.332;6.922;2023-07-20T15:11:33;23.70;74.10
53254;DHT22;39148;53.332;6.922;2023-07-20T15:13:59;23.60;74.20
53254;DHT22;39148;53.332;6.922;2023-07-20T15:16:24;23.80;74.10
53254;DHT22;39148;53.332;6.922;2023-07-20T15:18:50;23.90;74.10
53254;DHT22;39148;53.332;6.922;2023-07-20T15:21:16;23.80;74.20
53254;DHT22;39148;53.332;6.922;2023-07-20T15:23:42;23.80;74.00
53254;DHT22;39148;53.332;6.922;2023-07-20T15:26:08;23.60;74.10
53254;DHT22;39148;53.332;6.922;2023-07-20T15:28:34;23.80;73.90
53254;DHT22;39148;53.332;6.922;2023-07-20T15:31:01;23.90;74.10
53254;DHT22;39148;53.332;6.922;2023-07-20T15:33:27;23.80;74.00
53254;DHT22;39148;53.332;6.922;2023-07-20T15:35:53;23.80;73.80
53254;DHT22;39148;53.332;6.922;2023-07-20T15:38:19;23.90;73.80
53254;DHT22;39148;53.332;6.922;2023-07-20T15:40:45;23.80;73.80